EZS129 LSZH-EGGP
Flight info
| Callsign | EZS129 |
|---|---|
| Flight time | 1h 34m |
| Altitude | 34000 |
| Route | VEBIT T10 TORPA DCT REKLA DCT RLP DCT ROTSI DCT KOTUN DCT AMAXA DCT VESAN DCT RATUK DCT SOVAT/N0455F360 L613 SANDY UN57 WELIN T420 ELVOS |
| Aircraft | A320/M-SDE3FGHIRWY/LB1 |
Departure
| Time | 2026-05-06 18:10 |
|---|---|
| Airport | Zürich Airport (LSZH) |
Arrival
| Time | 2026-05-06 19:45 |
|---|---|
| Airport | Liverpool John Lennon Airport (EGGP) |
| Time | Latitude | Longitude | Altitude | Speed | Heading |
|---|---|---|---|---|---|
| 2026-05-06 18:10 | 47.40738 | 8.38231 | 6650 ft | 254 kts | 235° |
| 2026-05-06 18:10 | 47.39694 | 8.36118 | 6914 ft | 255 kts | 235° |
| 2026-05-06 18:11 | 47.38684 | 8.33964 | 7096 ft | 258 kts | 244° |
| 2026-05-06 18:11 | 47.37944 | 8.31546 | 7955 ft | 259 kts | 245° |
| 2026-05-06 18:11 | 47.37142 | 8.29182 | 8785 ft | 263 kts | 243° |
| 2026-05-06 18:11 | 47.36266 | 8.26758 | 9619 ft | 267 kts | 242° |
| 2026-05-06 18:12 | 47.35383 | 8.24362 | 10295 ft | 275 kts | 242° |
| 2026-05-06 18:12 | 47.34422 | 8.21743 | 10526 ft | 298 kts | 242° |
| 2026-05-06 18:12 | 47.33420 | 8.18982 | 10726 ft | 321 kts | 242° |
| 2026-05-06 18:12 | 47.32337 | 8.15975 | 10892 ft | 342 kts | 242° |
| 2026-05-06 18:13 | 47.31211 | 8.12825 | 11382 ft | 351 kts | 242° |
| 2026-05-06 18:13 | 47.30073 | 8.09624 | 12067 ft | 354 kts | 242° |
| 2026-05-06 18:13 | 47.28922 | 8.06392 | 12754 ft | 358 kts | 242° |
| 2026-05-06 18:13 | 47.27912 | 8.03024 | 13405 ft | 362 kts | 251° |
| 2026-05-06 18:14 | 47.27369 | 7.99380 | 14000 ft | 368 kts | 262° |
| 2026-05-06 18:14 | 47.27350 | 7.95586 | 14552 ft | 375 kts | 274° |
| 2026-05-06 18:14 | 47.27718 | 7.91765 | 15080 ft | 379 kts | 276° |
| 2026-05-06 18:14 | 47.28102 | 7.87901 | 15623 ft | 383 kts | 276° |
| 2026-05-06 18:15 | 47.28477 | 7.84003 | 16140 ft | 387 kts | 276° |
| 2026-05-06 18:15 | 47.28849 | 7.80054 | 16661 ft | 391 kts | 276° |
| 2026-05-06 18:15 | 47.29225 | 7.76014 | 17170 ft | 395 kts | 276° |
| 2026-05-06 18:15 | 47.29598 | 7.71992 | 17682 ft | 399 kts | 276° |
| 2026-05-06 18:16 | 47.29978 | 7.67930 | 18178 ft | 403 kts | 276° |
| 2026-05-06 18:16 | 47.30380 | 7.63880 | 18609 ft | 407 kts | 278° |
| 2026-05-06 18:16 | 47.31121 | 7.59835 | 19040 ft | 412 kts | 285° |
| 2026-05-06 18:16 | 47.32006 | 7.55805 | 19490 ft | 415 kts | 285° |
| 2026-05-06 18:17 | 47.32894 | 7.51742 | 19905 ft | 418 kts | 285° |
| 2026-05-06 18:17 | 47.33786 | 7.47648 | 20346 ft | 421 kts | 285° |
| 2026-05-06 18:17 | 47.34679 | 7.43535 | 20788 ft | 423 kts | 284° |
| 2026-05-06 18:17 | 47.35575 | 7.39388 | 21195 ft | 426 kts | 285° |
| 2026-05-06 18:18 | 47.36474 | 7.35216 | 21606 ft | 428 kts | 285° |
| 2026-05-06 18:18 | 47.37379 | 7.31011 | 22012 ft | 431 kts | 285° |
| 2026-05-06 18:18 | 47.38286 | 7.26782 | 22411 ft | 434 kts | 285° |
| 2026-05-06 18:18 | 47.39196 | 7.22524 | 22797 ft | 436 kts | 285° |
| 2026-05-06 18:19 | 47.40111 | 7.18242 | 23178 ft | 439 kts | 285° |
| 2026-05-06 18:19 | 47.40948 | 7.13900 | 23522 ft | 440 kts | 280° |
| 2026-05-06 18:19 | 47.41606 | 7.09470 | 23832 ft | 443 kts | 280° |
| 2026-05-06 18:19 | 47.42263 | 7.05019 | 24158 ft | 445 kts | 280° |
| 2026-05-06 18:20 | 47.42920 | 7.00538 | 24461 ft | 448 kts | 280° |
| 2026-05-06 18:20 | 47.43578 | 6.96034 | 24770 ft | 450 kts | 280° |
| 2026-05-06 18:20 | 47.44241 | 6.91499 | 25072 ft | 452 kts | 280° |
| 2026-05-06 18:20 | 47.44904 | 6.86955 | 25372 ft | 454 kts | 280° |
| 2026-05-06 18:21 | 47.45566 | 6.82387 | 25651 ft | 456 kts | 280° |
| 2026-05-06 18:21 | 47.46229 | 6.77796 | 25938 ft | 458 kts | 280° |
| 2026-05-06 18:21 | 47.46889 | 6.73193 | 26212 ft | 459 kts | 280° |
| 2026-05-06 18:21 | 47.47554 | 6.68557 | 26496 ft | 461 kts | 280° |
| 2026-05-06 18:22 | 47.48093 | 6.63878 | 26760 ft | 463 kts | 276° |
| 2026-05-06 18:22 | 47.48431 | 6.59140 | 27043 ft | 464 kts | 275° |
| 2026-05-06 18:22 | 47.48774 | 6.54395 | 27399 ft | 464 kts | 275° |
| 2026-05-06 18:22 | 47.49118 | 6.49654 | 27748 ft | 464 kts | 275° |
| 2026-05-06 18:23 | 47.49459 | 6.44917 | 28134 ft | 463 kts | 275° |
| 2026-05-06 18:23 | 47.49797 | 6.40180 | 28513 ft | 463 kts | 275° |
| 2026-05-06 18:23 | 47.50131 | 6.35451 | 28901 ft | 462 kts | 275° |
| 2026-05-06 18:23 | 47.50461 | 6.30726 | 29272 ft | 462 kts | 275° |
| 2026-05-06 18:24 | 47.50791 | 6.25997 | 29612 ft | 462 kts | 276° |
| 2026-05-06 18:24 | 47.51122 | 6.21265 | 29940 ft | 463 kts | 277° |
| 2026-05-06 18:24 | 47.51450 | 6.16523 | 30223 ft | 464 kts | 276° |
| 2026-05-06 18:24 | 47.51774 | 6.11781 | 30515 ft | 464 kts | 276° |
| 2026-05-06 18:25 | 47.52094 | 6.07034 | 30821 ft | 464 kts | 276° |
| 2026-05-06 18:25 | 47.52412 | 6.02288 | 31140 ft | 463 kts | 275° |
| 2026-05-06 18:25 | 47.52729 | 5.97568 | 31553 ft | 460 kts | 275° |
| 2026-05-06 18:25 | 47.53087 | 5.92883 | 31993 ft | 457 kts | 278° |
| 2026-05-06 18:26 | 47.53851 | 5.88333 | 32394 ft | 456 kts | 288° |
| 2026-05-06 18:26 | 47.55097 | 5.84036 | 32795 ft | 455 kts | 297° |
| 2026-05-06 18:26 | 47.56787 | 5.80085 | 33160 ft | 454 kts | 306° |
| 2026-05-06 18:26 | 47.58852 | 5.76547 | 33486 ft | 455 kts | 311° |
| 2026-05-06 18:27 | 47.60996 | 5.73109 | 33797 ft | 454 kts | 311° |
| 2026-05-06 18:27 | 47.63144 | 5.69656 | 33909 ft | 457 kts | 310° |
| 2026-05-06 18:27 | 47.67462 | 5.62693 | 33916 ft | 460 kts | 311° |
| 2026-05-06 18:28 | 47.71758 | 5.55727 | 33913 ft | 461 kts | 310° |
| 2026-05-06 18:28 | 47.76078 | 5.48695 | 33919 ft | 461 kts | 310° |
| 2026-05-06 18:29 | 47.80396 | 5.41672 | 33914 ft | 460 kts | 311° |
| 2026-05-06 18:29 | 47.84761 | 5.34555 | 33932 ft | 459 kts | 311° |
| 2026-05-06 18:30 | 47.89002 | 5.27605 | 33919 ft | 459 kts | 311° |
| 2026-05-06 18:30 | 47.93290 | 5.20553 | 33926 ft | 459 kts | 311° |
| 2026-05-06 18:31 | 47.97574 | 5.13490 | 33925 ft | 459 kts | 311° |
| 2026-05-06 18:31 | 48.01855 | 5.06425 | 33932 ft | 459 kts | 311° |
| 2026-05-06 18:32 | 48.06134 | 4.99360 | 33935 ft | 458 kts | 311° |
| 2026-05-06 18:32 | 48.10399 | 4.92288 | 33932 ft | 458 kts | 311° |
| 2026-05-06 18:33 | 48.14660 | 4.85204 | 33925 ft | 458 kts | 311° |
| 2026-05-06 18:33 | 48.18915 | 4.78107 | 33915 ft | 458 kts | 311° |
| 2026-05-06 18:34 | 48.23135 | 4.71053 | 33922 ft | 458 kts | 311° |
| 2026-05-06 18:34 | 48.27384 | 4.63927 | 33933 ft | 457 kts | 311° |
| 2026-05-06 18:35 | 48.31612 | 4.56810 | 33933 ft | 457 kts | 311° |
| 2026-05-06 18:35 | 48.35840 | 4.49686 | 33932 ft | 456 kts | 311° |
| 2026-05-06 18:36 | 48.40058 | 4.42554 | 33923 ft | 456 kts | 311° |
| 2026-05-06 18:36 | 48.44269 | 4.35407 | 33912 ft | 456 kts | 310° |
| 2026-05-06 18:37 | 48.47793 | 4.29416 | 33929 ft | 456 kts | 310° |
| 2026-05-06 18:37 | 48.52673 | 4.21093 | 33933 ft | 455 kts | 310° |
| 2026-05-06 18:38 | 48.56865 | 4.13927 | 33942 ft | 455 kts | 310° |
| 2026-05-06 18:38 | 48.61054 | 4.06762 | 33940 ft | 455 kts | 310° |
| 2026-05-06 18:39 | 48.65228 | 3.99584 | 33937 ft | 454 kts | 310° |
| 2026-05-06 18:40 | 48.71492 | 3.88821 | 33939 ft | 454 kts | 313° |
| 2026-05-06 18:40 | 48.76408 | 3.82814 | 33928 ft | 455 kts | 324° |
| 2026-05-06 18:41 | 48.81545 | 3.77214 | 33925 ft | 455 kts | 323° |
| 2026-05-06 18:41 | 48.86679 | 3.71591 | 33922 ft | 455 kts | 323° |
| 2026-05-06 18:42 | 48.91810 | 3.65947 | 33935 ft | 455 kts | 323° |
| 2026-05-06 18:42 | 48.96937 | 3.60306 | 33937 ft | 455 kts | 323° |
| 2026-05-06 18:43 | 49.01201 | 3.55611 | 33921 ft | 455 kts | 323° |
| 2026-05-06 18:43 | 49.07158 | 3.49032 | 33931 ft | 454 kts | 323° |
| 2026-05-06 18:44 | 49.12262 | 3.43365 | 33944 ft | 453 kts | 323° |
| 2026-05-06 18:44 | 49.16530 | 3.38615 | 33943 ft | 453 kts | 323° |
| 2026-05-06 18:45 | 49.21613 | 3.32947 | 33946 ft | 452 kts | 323° |
| 2026-05-06 18:45 | 49.26692 | 3.27275 | 33941 ft | 452 kts | 323° |
| 2026-05-06 18:46 | 49.31765 | 3.21595 | 33934 ft | 452 kts | 323° |
| 2026-05-06 18:46 | 49.36831 | 3.15900 | 33938 ft | 451 kts | 323° |
| 2026-05-06 18:47 | 49.41900 | 3.10206 | 33934 ft | 451 kts | 323° |
| 2026-05-06 18:47 | 49.46968 | 3.04498 | 33930 ft | 452 kts | 323° |
| 2026-05-06 18:48 | 49.52026 | 2.98772 | 33934 ft | 451 kts | 323° |
| 2026-05-06 18:48 | 49.57074 | 2.93043 | 33941 ft | 451 kts | 323° |
| 2026-05-06 18:49 | 49.62115 | 2.87309 | 33944 ft | 450 kts | 323° |
| 2026-05-06 18:49 | 49.67148 | 2.81556 | 33943 ft | 450 kts | 323° |
| 2026-05-06 18:50 | 49.72180 | 2.75803 | 33954 ft | 450 kts | 323° |
| 2026-05-06 18:50 | 49.77197 | 2.70050 | 33950 ft | 448 kts | 323° |
| 2026-05-06 18:51 | 49.82192 | 2.64409 | 33960 ft | 447 kts | 324° |
| 2026-05-06 18:51 | 49.87254 | 2.58839 | 33958 ft | 446 kts | 324° |
| 2026-05-06 18:52 | 49.92306 | 2.53280 | 33964 ft | 445 kts | 324° |
| 2026-05-06 18:52 | 49.97335 | 2.47676 | 33958 ft | 445 kts | 324° |
| 2026-05-06 18:53 | 50.02348 | 2.42046 | 33956 ft | 444 kts | 324° |
| 2026-05-06 18:53 | 50.07355 | 2.36421 | 33960 ft | 443 kts | 324° |
| 2026-05-06 18:54 | 50.12359 | 2.30808 | 33956 ft | 443 kts | 324° |
| 2026-05-06 18:54 | 50.17357 | 2.25170 | 33950 ft | 443 kts | 324° |
| 2026-05-06 18:55 | 50.22353 | 2.19522 | 33970 ft | 443 kts | 323° |
| 2026-05-06 18:55 | 50.27338 | 2.13874 | 33957 ft | 443 kts | 324° |
| 2026-05-06 18:56 | 50.32322 | 2.08212 | 33964 ft | 443 kts | 323° |
| 2026-05-06 18:56 | 50.37289 | 2.02514 | 33968 ft | 443 kts | 322° |
| 2026-05-06 18:57 | 50.42052 | 1.96403 | 33978 ft | 442 kts | 319° |
| 2026-05-06 18:57 | 50.46632 | 1.89965 | 33972 ft | 442 kts | 317° |
| 2026-05-06 18:58 | 50.51211 | 1.83517 | 33966 ft | 442 kts | 318° |
| 2026-05-06 18:58 | 50.55834 | 1.77147 | 33967 ft | 442 kts | 319° |
| 2026-05-06 18:59 | 50.60476 | 1.70816 | 33968 ft | 441 kts | 319° |
| 2026-05-06 18:59 | 50.65103 | 1.64465 | 33988 ft | 441 kts | 318° |
| 2026-05-06 19:00 | 50.69720 | 1.58093 | 33988 ft | 441 kts | 318° |
| 2026-05-06 19:00 | 50.74325 | 1.51701 | 33979 ft | 441 kts | 318° |
| 2026-05-06 19:01 | 50.78960 | 1.45326 | 33983 ft | 441 kts | 319° |
| 2026-05-06 19:01 | 50.83620 | 1.39008 | 33987 ft | 441 kts | 319° |
| 2026-05-06 19:02 | 50.88283 | 1.32676 | 33988 ft | 442 kts | 318° |
| 2026-05-06 19:02 | 50.92929 | 1.26306 | 33998 ft | 442 kts | 318° |
| 2026-05-06 19:03 | 50.97569 | 1.19907 | 33993 ft | 442 kts | 318° |
| 2026-05-06 19:03 | 51.02212 | 1.13502 | 33993 ft | 442 kts | 318° |
| 2026-05-06 19:04 | 51.06850 | 1.07088 | 33992 ft | 442 kts | 318° |
| 2026-05-06 19:04 | 51.11486 | 1.00652 | 33993 ft | 442 kts | 318° |
| 2026-05-06 19:05 | 51.16121 | 0.94212 | 33992 ft | 442 kts | 317° |
| 2026-05-06 19:05 | 51.20751 | 0.87759 | 33988 ft | 442 kts | 317° |
| 2026-05-06 19:06 | 51.25369 | 0.81290 | 33988 ft | 442 kts | 317° |
| 2026-05-06 19:06 | 51.29982 | 0.74822 | 33989 ft | 441 kts | 317° |
| 2026-05-06 19:07 | 51.34591 | 0.68337 | 34003 ft | 441 kts | 317° |
| 2026-05-06 19:07 | 51.39195 | 0.61838 | 34006 ft | 441 kts | 317° |
| 2026-05-06 19:08 | 51.43798 | 0.55337 | 33997 ft | 441 kts | 317° |
| 2026-05-06 19:08 | 51.48391 | 0.48820 | 33997 ft | 441 kts | 316° |
| 2026-05-06 19:09 | 51.52980 | 0.42295 | 34000 ft | 441 kts | 316° |
| 2026-05-06 19:09 | 51.57564 | 0.35759 | 34021 ft | 441 kts | 316° |
| 2026-05-06 19:10 | 51.62141 | 0.29208 | 34022 ft | 441 kts | 316° |
| 2026-05-06 19:10 | 51.66719 | 0.22639 | 34020 ft | 440 kts | 316° |
| 2026-05-06 19:11 | 51.71290 | 0.16062 | 34020 ft | 440 kts | 316° |
| 2026-05-06 19:11 | 51.75860 | 0.09478 | 34020 ft | 440 kts | 316° |
| 2026-05-06 19:12 | 51.80430 | 0.02883 | 34020 ft | 440 kts | 316° |
| 2026-05-06 19:12 | 51.84990 | -0.03733 | 34048 ft | 440 kts | 316° |
| 2026-05-06 19:13 | 51.89542 | -0.10357 | 34037 ft | 440 kts | 316° |
| 2026-05-06 19:13 | 51.94050 | -0.16951 | 34034 ft | 439 kts | 315° |
| 2026-05-06 19:14 | 51.98584 | -0.23593 | 34031 ft | 439 kts | 316° |
| 2026-05-06 19:14 | 52.03121 | -0.30244 | 34027 ft | 439 kts | 315° |
| 2026-05-06 19:15 | 52.07647 | -0.36904 | 33901 ft | 437 kts | 315° |
| 2026-05-06 19:15 | 52.09901 | -0.40222 | 33193 ft | 436 kts | 315° |
| 2026-05-06 19:15 | 52.12149 | -0.43536 | 32902 ft | 438 kts | 315° |
| 2026-05-06 19:15 | 52.14412 | -0.46879 | 32628 ft | 440 kts | 315° |
| 2026-05-06 19:16 | 52.16673 | -0.50229 | 32258 ft | 439 kts | 315° |
| 2026-05-06 19:16 | 52.18932 | -0.53581 | 31407 ft | 440 kts | 315° |
| 2026-05-06 19:16 | 52.21194 | -0.56945 | 30505 ft | 442 kts | 315° |
| 2026-05-06 19:16 | 52.23471 | -0.60338 | 29540 ft | 444 kts | 315° |
| 2026-05-06 19:17 | 52.25752 | -0.63740 | 28453 ft | 446 kts | 315° |
| 2026-05-06 19:17 | 52.28047 | -0.67164 | 27343 ft | 449 kts | 316° |
| 2026-05-06 19:17 | 52.30357 | -0.70616 | 26256 ft | 451 kts | 316° |
| 2026-05-06 19:17 | 52.32677 | -0.74089 | 25348 ft | 453 kts | 316° |
| 2026-05-06 19:18 | 52.35009 | -0.77587 | 25079 ft | 457 kts | 316° |
| 2026-05-06 19:18 | 52.37354 | -0.81108 | 24841 ft | 459 kts | 316° |
| 2026-05-06 19:18 | 52.39707 | -0.84646 | 24602 ft | 460 kts | 316° |
| 2026-05-06 19:18 | 52.42016 | -0.88122 | 24364 ft | 461 kts | 316° |
| 2026-05-06 19:19 | 52.44426 | -0.91748 | 24121 ft | 461 kts | 316° |
| 2026-05-06 19:19 | 52.46788 | -0.95307 | 23876 ft | 460 kts | 316° |
| 2026-05-06 19:19 | 52.49139 | -0.98859 | 23639 ft | 459 kts | 316° |
| 2026-05-06 19:19 | 52.51481 | -1.02403 | 23378 ft | 458 kts | 316° |
| 2026-05-06 19:20 | 52.53816 | -1.05940 | 23091 ft | 456 kts | 316° |
| 2026-05-06 19:20 | 52.56139 | -1.09470 | 22806 ft | 454 kts | 316° |
| 2026-05-06 19:20 | 52.58449 | -1.12987 | 22528 ft | 452 kts | 316° |
| 2026-05-06 19:20 | 52.60749 | -1.16493 | 22252 ft | 450 kts | 316° |
| 2026-05-06 19:21 | 52.63043 | -1.19992 | 21977 ft | 448 kts | 316° |
| 2026-05-06 19:21 | 52.65324 | -1.23473 | 21690 ft | 446 kts | 316° |
| 2026-05-06 19:21 | 52.67585 | -1.26921 | 20866 ft | 441 kts | 316° |
| 2026-05-06 19:21 | 52.69867 | -1.30258 | 20059 ft | 437 kts | 321° |
| 2026-05-06 19:22 | 52.72382 | -1.33034 | 19592 ft | 433 kts | 328° |
| 2026-05-06 19:22 | 52.74921 | -1.35585 | 19379 ft | 433 kts | 327° |
| 2026-05-06 19:22 | 52.77511 | -1.38229 | 19013 ft | 431 kts | 327° |
| 2026-05-06 19:22 | 52.80049 | -1.40844 | 18656 ft | 429 kts | 327° |
| 2026-05-06 19:23 | 52.82575 | -1.43454 | 18295 ft | 427 kts | 327° |
| 2026-05-06 19:23 | 52.85091 | -1.46051 | 17918 ft | 425 kts | 327° |
| 2026-05-06 19:23 | 52.87594 | -1.48627 | 17572 ft | 422 kts | 327° |
| 2026-05-06 19:23 | 52.90081 | -1.51186 | 17222 ft | 420 kts | 327° |
| 2026-05-06 19:24 | 52.92527 | -1.53699 | 16884 ft | 419 kts | 327° |
| 2026-05-06 19:24 | 52.94998 | -1.56241 | 16540 ft | 417 kts | 327° |
| 2026-05-06 19:24 | 52.97454 | -1.58772 | 16194 ft | 415 kts | 327° |
| 2026-05-06 19:24 | 52.99897 | -1.61292 | 15850 ft | 412 kts | 326° |
| 2026-05-06 19:25 | 53.02139 | -1.64210 | 15514 ft | 409 kts | 315° |
| 2026-05-06 19:25 | 53.03978 | -1.67787 | 15177 ft | 406 kts | 304° |
| 2026-05-06 19:25 | 53.05358 | -1.71863 | 14838 ft | 404 kts | 294° |
| 2026-05-06 19:25 | 53.06248 | -1.76269 | 14504 ft | 402 kts | 283° |
| 2026-05-06 19:26 | 53.06728 | -1.80842 | 14175 ft | 401 kts | 279° |
| 2026-05-06 19:26 | 53.07166 | -1.85405 | 13838 ft | 399 kts | 279° |
| 2026-05-06 19:26 | 53.07603 | -1.89955 | 13486 ft | 398 kts | 279° |
| 2026-05-06 19:26 | 53.08036 | -1.94485 | 13163 ft | 396 kts | 279° |
| 2026-05-06 19:27 | 53.08463 | -1.98996 | 12838 ft | 395 kts | 279° |
| 2026-05-06 19:27 | 53.08887 | -2.03502 | 12506 ft | 393 kts | 279° |
| 2026-05-06 19:27 | 53.09305 | -2.07981 | 12188 ft | 391 kts | 279° |
| 2026-05-06 19:27 | 53.09721 | -2.12439 | 11868 ft | 390 kts | 279° |
| 2026-05-06 19:28 | 53.10136 | -2.16898 | 11548 ft | 388 kts | 279° |
| 2026-05-06 19:28 | 53.10537 | -2.21244 | 11337 ft | 372 kts | 279° |
| 2026-05-06 19:28 | 53.10792 | -2.24015 | 11250 ft | 360 kts | 279° |
| 2026-05-06 19:28 | 53.11160 | -2.28044 | 11126 ft | 344 kts | 279° |
| 2026-05-06 19:29 | 53.11514 | -2.31932 | 10996 ft | 328 kts | 279° |
| 2026-05-06 19:29 | 53.11846 | -2.35567 | 10878 ft | 315 kts | 279° |
| 2026-05-06 19:29 | 53.12169 | -2.39105 | 10751 ft | 303 kts | 279° |
| 2026-05-06 19:29 | 53.12476 | -2.42514 | 10623 ft | 292 kts | 279° |
| 2026-05-06 19:30 | 53.12770 | -2.45815 | 10421 ft | 285 kts | 279° |
| 2026-05-06 19:30 | 53.13057 | -2.49052 | 10320 ft | 282 kts | 279° |
| 2026-05-06 19:30 | 53.13344 | -2.52277 | 10204 ft | 281 kts | 279° |
| 2026-05-06 19:30 | 53.13632 | -2.55490 | 10081 ft | 281 kts | 279° |
| 2026-05-06 19:31 | 53.13922 | -2.58688 | 9927 ft | 278 kts | 279° |
| 2026-05-06 19:31 | 53.14224 | -2.61861 | 9731 ft | 277 kts | 279° |
| 2026-05-06 19:31 | 53.14838 | -2.68172 | 9374 ft | 275 kts | 279° |
| 2026-05-06 19:32 | 53.15143 | -2.71317 | 9187 ft | 274 kts | 279° |
| 2026-05-06 19:32 | 53.15445 | -2.74449 | 9015 ft | 274 kts | 279° |
| 2026-05-06 19:32 | 53.15744 | -2.77571 | 8833 ft | 273 kts | 279° |
| 2026-05-06 19:32 | 53.16044 | -2.80690 | 8667 ft | 272 kts | 279° |
| 2026-05-06 19:33 | 53.16342 | -2.83796 | 8502 ft | 271 kts | 279° |
| 2026-05-06 19:33 | 53.16636 | -2.86896 | 8330 ft | 270 kts | 279° |
| 2026-05-06 19:33 | 53.16928 | -2.89988 | 8157 ft | 270 kts | 279° |
| 2026-05-06 19:33 | 53.17217 | -2.93068 | 7987 ft | 269 kts | 279° |
| 2026-05-06 19:34 | 53.17504 | -2.96144 | 7813 ft | 268 kts | 279° |
| 2026-05-06 19:34 | 53.17790 | -2.99209 | 7640 ft | 267 kts | 279° |
| 2026-05-06 19:34 | 53.18074 | -3.02265 | 7478 ft | 265 kts | 279° |
| 2026-05-06 19:34 | 53.18348 | -3.05227 | 7368 ft | 252 kts | 279° |
| 2026-05-06 19:35 | 53.18609 | -3.08047 | 7262 ft | 240 kts | 278° |
| 2026-05-06 19:35 | 53.18867 | -3.10729 | 7159 ft | 229 kts | 282° |
| 2026-05-06 19:35 | 53.19545 | -3.13079 | 7055 ft | 227 kts | 311° |
| 2026-05-06 19:35 | 53.20854 | -3.14554 | 6802 ft | 234 kts | 342° |
| 2026-05-06 19:36 | 53.22491 | -3.14729 | 6389 ft | 239 kts | 3° |
| 2026-05-06 19:36 | 53.24159 | -3.14524 | 5966 ft | 242 kts | 3° |
| 2026-05-06 19:36 | 53.25842 | -3.14332 | 5563 ft | 243 kts | 3° |
| 2026-05-06 19:36 | 53.27534 | -3.14151 | 5165 ft | 244 kts | 3° |
| 2026-05-06 19:37 | 53.29219 | -3.13846 | 4780 ft | 244 kts | 15° |
| 2026-05-06 19:37 | 53.30646 | -3.12432 | 4396 ft | 240 kts | 49° |
| 2026-05-06 19:37 | 53.31614 | -3.10179 | 4030 ft | 238 kts | 58° |
| 2026-05-06 19:37 | 53.32267 | -3.07677 | 3678 ft | 234 kts | 80° |
| 2026-05-06 19:38 | 53.32494 | -3.04984 | 3421 ft | 229 kts | 86° |
| 2026-05-06 19:38 | 53.32620 | -3.02461 | 3361 ft | 208 kts | 87° |
| 2026-05-06 19:38 | 53.32687 | -3.00138 | 3190 ft | 194 kts | 89° |
| 2026-05-06 19:38 | 53.32761 | -2.98001 | 3073 ft | 175 kts | 89° |
| 2026-05-06 19:39 | 53.32473 | -2.96175 | 2916 ft | 158 kts | 131° |
| 2026-05-06 19:39 | 53.31576 | -2.95342 | 2779 ft | 146 kts | 170° |
| 2026-05-06 19:39 | 53.30574 | -2.95217 | 2563 ft | 144 kts | 179° |
| 2026-05-06 19:39 | 53.29659 | -2.95825 | 2502 ft | 148 kts | 228° |
| 2026-05-06 19:40 | 53.29069 | -2.97262 | 2518 ft | 151 kts | 233° |
| 2026-05-06 19:40 | 53.28466 | -2.98700 | 2508 ft | 152 kts | 242° |
| 2026-05-06 19:40 | 53.28253 | -3.00420 | 2534 ft | 154 kts | 265° |
| 2026-05-06 19:40 | 53.28245 | -3.02204 | 2478 ft | 152 kts | 269° |
| 2026-05-06 19:41 | 53.28472 | -3.03916 | 2393 ft | 154 kts | 306° |
| 2026-05-06 19:41 | 53.29331 | -3.04887 | 2335 ft | 155 kts | 342° |
| 2026-05-06 19:41 | 53.30305 | -3.05665 | 2301 ft | 156 kts | 327° |
| 2026-05-06 19:41 | 53.31293 | -3.06307 | 2301 ft | 150 kts | 4° |
| 2026-05-06 19:42 | 53.32179 | -3.05587 | 2295 ft | 142 kts | 57° |
| 2026-05-06 19:42 | 53.32488 | -3.04109 | 2071 ft | 134 kts | 88° |
| 2026-05-06 19:42 | 53.32547 | -3.02557 | 1950 ft | 136 kts | 88° |
| 2026-05-06 19:42 | 53.32617 | -3.00970 | 1801 ft | 136 kts | 88° |
| 2026-05-06 19:43 | 53.32690 | -2.99395 | 1629 ft | 135 kts | 88° |
| 2026-05-06 19:43 | 53.32763 | -2.97821 | 1456 ft | 136 kts | 88° |
| 2026-05-06 19:43 | 53.32837 | -2.96254 | 1263 ft | 135 kts | 88° |
| 2026-05-06 19:43 | 53.32910 | -2.94689 | 1079 ft | 135 kts | 87° |
| 2026-05-06 19:44 | 53.32984 | -2.93128 | 892 ft | 135 kts | 88° |
| 2026-05-06 19:44 | 53.33057 | -2.91568 | 706 ft | 134 kts | 87° |
| 2026-05-06 19:44 | 53.33129 | -2.90016 | 522 ft | 133 kts | 87° |
| 2026-05-06 19:44 | 53.33202 | -2.88464 | 339 ft | 134 kts | 88° |
| 2026-05-06 19:45 | 53.33274 | -2.86914 | 161 ft | 133 kts | 88° |
| 2026-05-06 19:45 | 53.33339 | -2.85459 | 84 ft | 107 kts | 85° |
| 2026-05-06 19:45 | 53.33383 | -2.84542 | 67 ft | 41 kts | 85° |
| 2026-05-06 19:45 | 53.33403 | -2.84150 | 77 ft | 32 kts | 85° |
| 2026-05-06 19:46 | 53.33423 | -2.83826 | 84 ft | 22 kts | 83° |
| 2026-05-06 19:46 | 53.33442 | -2.83683 | 66 ft | 11 kts | 49° |
| 2026-05-06 19:46 | 53.33510 | -2.83635 | 76 ft | 6 kts | 5° |
| 2026-05-06 19:46 | 53.33522 | -2.83635 | 72 ft | 0 kts | 358° |
| 2026-05-06 19:47 | 53.33544 | -2.83641 | 72 ft | 8 kts | 346° |
| 2026-05-06 19:47 | 53.33582 | -2.83789 | 67 ft | 24 kts | 261° |
| 2026-05-06 19:47 | 53.33572 | -2.84093 | 70 ft | 26 kts | 264° |
| 2026-05-06 19:47 | 53.33555 | -2.84389 | 73 ft | 26 kts | 265° |
| 2026-05-06 19:48 | 53.33542 | -2.84688 | 80 ft | 20 kts | 266° |
| 2026-05-06 19:48 | 53.33530 | -2.84884 | 84 ft | 14 kts | 265° |
| 2026-05-06 19:48 | 53.33530 | -2.84974 | 85 ft | 0 kts | 273° |
| 2026-05-06 19:49 | 53.33534 | -2.85028 | 85 ft | 10 kts | 284° |
| 2026-05-06 19:49 | 53.33575 | -2.85067 | 85 ft | 9 kts | 351° |
| 2026-05-06 19:49 | 53.33622 | -2.85077 | 87 ft | 3 kts | 330° |
| 2026-05-06 19:49 | 53.33632 | -2.85123 | 86 ft | 7 kts | 274° |
| 2026-05-06 19:50 | 53.33632 | -2.85177 | 85 ft | 3 kts | 268° |
| 2026-05-06 19:50 | 53.33631 | -2.85190 | 87 ft | 0 kts | 267° |